sensor_id;sensor_type;location;lat;lon;timestamp;pressure;altitude;pressure_sealevel;temperature;humidity
60817;BME280;51921;51.518;-3.188;2023-04-19T00:01:52;102260.38;;;3.17;100.00
60817;BME280;51921;51.518;-3.188;2023-04-19T00:04:17;102262.74;;;3.47;100.00
60817;BME280;51921;51.518;-3.188;2023-04-19T00:06:43;102259.92;;;3.57;100.00
60817;BME280;51921;51.518;-3.188;2023-04-19T00:09:08;102254.60;;;3.70;100.00
60817;BME280;51921;51.518;-3.188;2023-04-19T00:11:34;102250.86;;;3.23;100.00
60817;BME280;51921;51.518;-3.188;2023-04-19T00:13:59;102256.02;;;3.73;100.00
60817;BME280;51921;51.518;-3.188;2023-04-19T00:16:25;102254.87;;;3.59;100.00
60817;BME280;51921;51.518;-3.188;2023-04-19T00:18:51;102256.74;;;3.16;100.00
60817;BME280;51921;51.518;-3.188;2023-04-19T00:21:16;102253.23;;;3.32;100.00
60817;BME280;51921;51.518;-3.188;2023-04-19T00:23:42;102254.30;;;3.04;100.00
60817;BME280;51921;51.518;-3.188;2023-04-19T00:26:07;102249.92;;;3.05;100.00
60817;BME280;51921;51.518;-3.188;2023-04-19T00:28:33;102253.72;;;2.85;100.00
60817;BME280;51921;51.518;-3.188;2023-04-19T00:30:58;102247.66;;;3.21;100.00
60817;BME280;51921;51.518;-3.188;2023-04-19T00:33:24;102247.90;;;3.29;100.00
60817;BME280;51921;51.518;-3.188;2023-04-19T00:35:49;102250.82;;;3.00;100.00
60817;BME280;51921;51.518;-3.188;2023-04-19T00:38:14;102253.16;;;2.93;100.00
60817;BME280;51921;51.518;-3.188;2023-04-19T00:40:39;102251.22;;;3.01;100.00
60817;BME280;51921;51.518;-3.188;2023-04-19T00:43:05;102247.24;;;3.24;100.00
60817;BME280;51921;51.518;-3.188;2023-04-19T00:45:31;102244.16;;;2.95;100.00
60817;BME280;51921;51.518;-3.188;2023-04-19T00:47:55;102241.33;;;2.53;100.00
60817;BME280;51921;51.518;-3.188;2023-04-19T00:50:21;102241.90;;;2.77;100.00
60817;BME280;51921;51.518;-3.188;2023-04-19T00:52:46;102235.91;;;2.40;100.00
60817;BME280;51921;51.518;-3.188;2023-04-19T00:55:12;102236.82;;;2.34;100.00
60817;BME280;51921;51.518;-3.188;2023-04-19T00:57:37;102226.74;;;2.71;100.00
60817;BME280;51921;51.518;-3.188;2023-04-19T01:00:02;102225.82;;;3.01;100.00
60817;BME280;51921;51.518;-3.188;2023-04-19T01:02:28;102221.54;;;2.90;100.00
60817;BME280;51921;51.518;-3.188;2023-04-19T01:04:53;102223.36;;;2.52;100.00
60817;BME280;51921;51.518;-3.188;2023-04-19T01:07:18;102223.29;;;2.62;100.00
60817;BME280;51921;51.518;-3.188;2023-04-19T01:09:44;102216.91;;;2.61;100.00
60817;BME280;51921;51.518;-3.188;2023-04-19T01:12:09;102220.84;;;2.53;100.00
60817;BME280;51921;51.518;-3.188;2023-04-19T01:14:34;102211.98;;;2.87;100.00
60817;BME280;51921;51.518;-3.188;2023-04-19T01:17:00;102213.47;;;2.51;100.00
60817;BME280;51921;51.518;-3.188;2023-04-19T01:19:25;102209.30;;;2.66;100.00
60817;BME280;51921;51.518;-3.188;2023-04-19T01:21:51;102208.27;;;2.62;100.00
60817;BME280;51921;51.518;-3.188;2023-04-19T01:24:17;102202.56;;;2.61;100.00
60817;BME280;51921;51.518;-3.188;2023-04-19T01:26:43;102201.46;;;2.33;100.00
60817;BME280;51921;51.518;-3.188;2023-04-19T01:29:08;102194.45;;;2.29;100.00
60817;BME280;51921;51.518;-3.188;2023-04-19T01:31:33;102197.60;;;2.63;100.00
60817;BME280;51921;51.518;-3.188;2023-04-19T01:33:59;102201.13;;;2.57;100.00
60817;BME280;51921;51.518;-3.188;2023-04-19T01:36:25;102201.33;;;2.85;100.00
60817;BME280;51921;51.518;-3.188;2023-04-19T01:38:50;102202.59;;;2.76;100.00
60817;BME280;51921;51.518;-3.188;2023-04-19T01:41:16;102203.44;;;2.43;100.00
60817;BME280;51921;51.518;-3.188;2023-04-19T01:43:41;102195.95;;;2.82;100.00
60817;BME280;51921;51.518;-3.188;2023-04-19T01:46:06;102196.11;;;2.83;100.00
60817;BME280;51921;51.518;-3.188;2023-04-19T01:48:31;102199.69;;;2.43;100.00
60817;BME280;51921;51.518;-3.188;2023-04-19T01:50:57;102203.08;;;2.37;100.00
60817;BME280;51921;51.518;-3.188;2023-04-19T01:53:22;102198.77;;;2.47;100.00
60817;BME280;51921;51.518;-3.188;2023-04-19T01:55:48;102203.28;;;2.36;100.00
60817;BME280;51921;51.518;-3.188;2023-04-19T01:58:13;102196.37;;;2.41;100.00
60817;BME280;51921;51.518;-3.188;2023-04-19T02:00:39;102188.15;;;2.46;100.00
60817;BME280;51921;51.518;-3.188;2023-04-19T02:03:04;102186.63;;;2.41;100.00
60817;BME280;51921;51.518;-3.188;2023-04-19T02:05:29;102185.22;;;2.52;100.00
60817;BME280;51921;51.518;-3.188;2023-04-19T02:07:54;102185.41;;;2.48;100.00
60817;BME280;51921;51.518;-3.188;2023-04-19T02:10:20;102186.08;;;2.36;100.00
60817;BME280;51921;51.518;-3.188;2023-04-19T02:12:45;102194.71;;;2.37;100.00
60817;BME280;51921;51.518;-3.188;2023-04-19T02:15:10;102187.82;;;2.21;100.00
60817;BME280;51921;51.518;-3.188;2023-04-19T02:17:35;102190.60;;;2.57;100.00
60817;BME280;51921;51.518;-3.188;2023-04-19T02:20:01;102191.18;;;2.34;100.00
60817;BME280;51921;51.518;-3.188;2023-04-19T02:22:27;102195.98;;;2.46;100.00
60817;BME280;51921;51.518;-3.188;2023-04-19T02:24:52;102192.26;;;2.06;100.00
60817;BME280;51921;51.518;-3.188;2023-04-19T02:27:17;102190.00;;;2.23;100.00
60817;BME280;51921;51.518;-3.188;2023-04-19T02:29:43;102192.47;;;2.21;100.00
60817;BME280;51921;51.518;-3.188;2023-04-19T02:32:10;102194.29;;;2.65;100.00
60817;BME280;51921;51.518;-3.188;2023-04-19T02:34:34;102186.83;;;2.44;100.00
60817;BME280;51921;51.518;-3.188;2023-04-19T02:37:00;102177.62;;;2.82;100.00
60817;BME280;51921;51.518;-3.188;2023-04-19T02:39:25;102180.96;;;2.62;100.00
60817;BME280;51921;51.518;-3.188;2023-04-19T02:41:51;102178.38;;;2.39;100.00
60817;BME280;51921;51.518;-3.188;2023-04-19T02:44:16;102178.93;;;2.45;100.00
60817;BME280;51921;51.518;-3.188;2023-04-19T02:46:48;102180.91;;;2.81;100.00
60817;BME280;51921;51.518;-3.188;2023-04-19T02:49:07;102183.28;;;2.21;100.00
60817;BME280;51921;51.518;-3.188;2023-04-19T02:51:33;102179.40;;;2.47;100.00
60817;BME280;51921;51.518;-3.188;2023-04-19T02:53:58;102181.49;;;2.52;100.00
60817;BME280;51921;51.518;-3.188;2023-04-19T02:56:24;102183.42;;;2.54;100.00
60817;BME280;51921;51.518;-3.188;2023-04-19T02:58:51;102179.15;;;2.45;100.00
60817;BME280;51921;51.518;-3.188;2023-04-19T03:01:15;102176.26;;;2.52;100.00
60817;BME280;51921;51.518;-3.188;2023-04-19T03:03:40;102172.77;;;2.70;100.00
60817;BME280;51921;51.518;-3.188;2023-04-19T03:06:06;102171.49;;;2.65;100.00
60817;BME280;51921;51.518;-3.188;2023-04-19T03:08:30;102164.54;;;2.52;100.00
60817;BME280;51921;51.518;-3.188;2023-04-19T03:10:56;102165.06;;;2.60;100.00
60817;BME280;51921;51.518;-3.188;2023-04-19T03:13:21;102166.68;;;2.74;100.00
60817;BME280;51921;51.518;-3.188;2023-04-19T03:15:47;102163.85;;;2.54;100.00
60817;BME280;51921;51.518;-3.188;2023-04-19T03:18:13;102163.85;;;2.54;100.00
60817;BME280;51921;51.518;-3.188;2023-04-19T03:20:39;102161.13;;;2.52;100.00
60817;BME280;51921;51.518;-3.188;2023-04-19T03:23:04;102162.79;;;2.53;100.00
60817;BME280;51921;51.518;-3.188;2023-04-19T03:25:30;102163.69;;;2.86;100.00
60817;BME280;51921;51.518;-3.188;2023-04-19T03:27:55;102164.63;;;2.75;100.00
60817;BME280;51921;51.518;-3.188;2023-04-19T03:30:20;102157.38;;;2.51;100.00
60817;BME280;51921;51.518;-3.188;2023-04-19T03:32:47;102161.62;;;2.86;100.00
60817;BME280;51921;51.518;-3.188;2023-04-19T03:35:11;102156.94;;;2.72;100.00
60817;BME280;51921;51.518;-3.188;2023-04-19T03:37:37;102159.94;;;2.58;100.00
60817;BME280;51921;51.518;-3.188;2023-04-19T03:40:03;102161.15;;;2.78;100.00
60817;BME280;51921;51.518;-3.188;2023-04-19T03:42:28;102152.99;;;2.83;100.00
60817;BME280;51921;51.518;-3.188;2023-04-19T03:44:54;102156.35;;;2.70;100.00
60817;BME280;51921;51.518;-3.188;2023-04-19T03:47:20;102156.30;;;3.02;100.00
60817;BME280;51921;51.518;-3.188;2023-04-19T03:49:45;102164.63;;;3.19;100.00
60817;BME280;51921;51.518;-3.188;2023-04-19T03:52:10;102155.51;;;2.85;100.00
60817;BME280;51921;51.518;-3.188;2023-04-19T03:54:36;102162.70;;;2.68;100.00
60817;BME280;51921;51.518;-3.188;2023-04-19T03:57:01;102163.90;;;2.87;100.00
60817;BME280;51921;51.518;-3.188;2023-04-19T03:59:27;102155.09;;;3.02;100.00
60817;BME280;51921;51.518;-3.188;2023-04-19T04:01:52;102160.70;;;3.03;100.00
60817;BME280;51921;51.518;-3.188;2023-04-19T04:04:18;102157.60;;;2.76;100.00
60817;BME280;51921;51.518;-3.188;2023-04-19T04:06:43;102150.55;;;3.29;100.00
60817;BME280;51921;51.518;-3.188;2023-04-19T04:09:08;102146.24;;;2.84;100.00
60817;BME280;51921;51.518;-3.188;2023-04-19T04:11:33;102146.49;;;2.90;100.00
60817;BME280;51921;51.518;-3.188;2023-04-19T04:13:59;102142.54;;;2.61;100.00
60817;BME280;51921;51.518;-3.188;2023-04-19T04:16:24;102150.94;;;2.80;100.00
60817;BME280;51921;51.518;-3.188;2023-04-19T04:18:50;102147.76;;;2.68;100.00
60817;BME280;51921;51.518;-3.188;2023-04-19T04:21:15;102152.29;;;2.52;100.00
60817;BME280;51921;51.518;-3.188;2023-04-19T04:23:41;102149.41;;;2.53;100.00
60817;BME280;51921;51.518;-3.188;2023-04-19T04:26:06;102148.67;;;2.36;100.00
60817;BME280;51921;51.518;-3.188;2023-04-19T04:28:31;102147.99;;;2.74;100.00
60817;BME280;51921;51.518;-3.188;2023-04-19T04:30:57;102143.99;;;2.67;100.00
60817;BME280;51921;51.518;-3.188;2023-04-19T04:33:23;102139.42;;;2.77;100.00
60817;BME280;51921;51.518;-3.188;2023-04-19T04:35:47;102140.47;;;2.60;100.00
60817;BME280;51921;51.518;-3.188;2023-04-19T04:38:12;102143.40;;;2.79;100.00
60817;BME280;51921;51.518;-3.188;2023-04-19T04:40:37;102132.30;;;2.57;100.00
60817;BME280;51921;51.518;-3.188;2023-04-19T04:43:02;102126.93;;;2.82;100.00
60817;BME280;51921;51.518;-3.188;2023-04-19T04:45:28;102120.53;;;2.84;100.00
60817;BME280;51921;51.518;-3.188;2023-04-19T04:47:54;102117.57;;;2.70;100.00
60817;BME280;51921;51.518;-3.188;2023-04-19T04:50:19;102117.26;;;2.78;100.00
60817;BME280;51921;51.518;-3.188;2023-04-19T04:52:44;102121.88;;;2.81;100.00
60817;BME280;51921;51.518;-3.188;2023-04-19T04:55:09;102120.86;;;2.51;100.00
60817;BME280;51921;51.518;-3.188;2023-04-19T04:57:35;102124.31;;;2.77;100.00
60817;BME280;51921;51.518;-3.188;2023-04-19T05:00:00;102123.03;;;2.69;100.00
60817;BME280;51921;51.518;-3.188;2023-04-19T05:02:26;102125.06;;;2.73;100.00
60817;BME280;51921;51.518;-3.188;2023-04-19T05:04:51;102125.27;;;2.54;100.00
60817;BME280;51921;51.518;-3.188;2023-04-19T05:07:17;102132.33;;;2.84;100.00
60817;BME280;51921;51.518;-3.188;2023-04-19T05:09:42;102130.65;;;2.59;100.00
60817;BME280;51921;51.518;-3.188;2023-04-19T05:12:07;102134.75;;;2.71;100.00
60817;BME280;51921;51.518;-3.188;2023-04-19T05:14:32;102143.75;;;2.79;100.00
60817;BME280;51921;51.518;-3.188;2023-04-19T05:16:58;102136.58;;;2.87;100.00
60817;BME280;51921;51.518;-3.188;2023-04-19T05:19:23;102138.89;;;2.73;100.00
60817;BME280;51921;51.518;-3.188;2023-04-19T05:21:49;102143.45;;;2.69;100.00
60817;BME280;51921;51.518;-3.188;2023-04-19T05:24:14;102148.16;;;2.85;100.00
60817;BME280;51921;51.518;-3.188;2023-04-19T05:26:40;102139.75;;;2.89;100.00
60817;BME280;51921;51.518;-3.188;2023-04-19T05:29:05;102140.89;;;2.80;100.00
60817;BME280;51921;51.518;-3.188;2023-04-19T05:31:31;102148.49;;;3.00;100.00
60817;BME280;51921;51.518;-3.188;2023-04-19T05:33:56;102147.51;;;2.87;100.00
60817;BME280;51921;51.518;-3.188;2023-04-19T05:36:22;102151.03;;;3.27;100.00
60817;BME280;51921;51.518;-3.188;2023-04-19T05:38:47;102145.18;;;3.19;100.00
60817;BME280;51921;51.518;-3.188;2023-04-19T05:41:14;102153.62;;;2.83;100.00
60817;BME280;51921;51.518;-3.188;2023-04-19T05:43:39;102151.33;;;3.21;100.00
60817;BME280;51921;51.518;-3.188;2023-04-19T05:46:05;102143.60;;;3.27;100.00
60817;BME280;51921;51.518;-3.188;2023-04-19T05:48:30;102140.78;;;3.28;100.00
60817;BME280;51921;51.518;-3.188;2023-04-19T05:50:55;102133.58;;;2.83;100.00
60817;BME280;51921;51.518;-3.188;2023-04-19T05:53:21;102133.28;;;3.34;100.00
60817;BME280;51921;51.518;-3.188;2023-04-19T05:55:46;102135.47;;;2.96;100.00
60817;BME280;51921;51.518;-3.188;2023-04-19T05:58:11;102134.99;;;3.06;100.00
60817;BME280;51921;51.518;-3.188;2023-04-19T06:00:36;102119.26;;;3.19;100.00
60817;BME280;51921;51.518;-3.188;2023-04-19T06:03:02;102125.33;;;2.83;100.00
60817;BME280;51921;51.518;-3.188;2023-04-19T06:05:28;102117.39;;;3.36;100.00
60817;BME280;51921;51.518;-3.188;2023-04-19T06:07:53;102128.39;;;3.36;100.00
60817;BME280;51921;51.518;-3.188;2023-04-19T06:10:18;102116.71;;;3.08;100.00
60817;BME280;51921;51.518;-3.188;2023-04-19T06:12:44;102122.63;;;3.12;100.00
60817;BME280;51921;51.518;-3.188;2023-04-19T06:15:10;102124.46;;;3.33;100.00
60817;BME280;51921;51.518;-3.188;2023-04-19T06:17:35;102125.11;;;3.55;100.00
60817;BME280;51921;51.518;-3.188;2023-04-19T06:20:00;102117.51;;;3.23;100.00
60817;BME280;51921;51.518;-3.188;2023-04-19T06:22:25;102120.59;;;3.36;100.00
60817;BME280;51921;51.518;-3.188;2023-04-19T06:24:51;102122.36;;;3.45;100.00
60817;BME280;51921;51.518;-3.188;2023-04-19T06:27:16;102119.54;;;3.46;100.00
60817;BME280;51921;51.518;-3.188;2023-04-19T06:29:41;102126.51;;;3.49;100.00
60817;BME280;51921;51.518;-3.188;2023-04-19T06:32:07;102127.82;;;3.37;100.00
60817;BME280;51921;51.518;-3.188;2023-04-19T06:34:32;102127.14;;;3.57;100.00
60817;BME280;51921;51.518;-3.188;2023-04-19T06:36:58;102118.69;;;3.51;100.00
60817;BME280;51921;51.518;-3.188;2023-04-19T06:39:23;102118.44;;;3.52;100.00
60817;BME280;51921;51.518;-3.188;2023-04-19T06:41:48;102120.50;;;3.51;100.00
60817;BME280;51921;51.518;-3.188;2023-04-19T06:44:14;102126.31;;;3.50;100.00
60817;BME280;51921;51.518;-3.188;2023-04-19T06:46:39;102125.00;;;3.40;100.00
60817;BME280;51921;51.518;-3.188;2023-04-19T06:49:05;102128.33;;;3.25;100.00
60817;BME280;51921;51.518;-3.188;2023-04-19T06:51:31;102119.15;;;3.32;100.00
60817;BME280;51921;51.518;-3.188;2023-04-19T06:53:56;102129.79;;;3.47;100.00
60817;BME280;51921;51.518;-3.188;2023-04-19T06:58:46;102126.91;;;3.33;100.00
60817;BME280;51921;51.518;-3.188;2023-04-19T07:01:12;102127.06;;;3.39;100.00
60817;BME280;51921;51.518;-3.188;2023-04-19T07:03:37;102129.07;;;3.41;100.00
60817;BME280;51921;51.518;-3.188;2023-04-19T07:06:03;102131.63;;;3.61;100.00
60817;BME280;51921;51.518;-3.188;2023-04-19T07:08:28;102134.51;;;3.51;100.00
60817;BME280;51921;51.518;-3.188;2023-04-19T07:10:54;102130.95;;;3.39;100.00
60817;BME280;51921;51.518;-3.188;2023-04-19T07:13:20;102132.20;;;3.72;100.00
60817;BME280;51921;51.518;-3.188;2023-04-19T07:15:45;102127.78;;;3.78;100.00
60817;BME280;51921;51.518;-3.188;2023-04-19T07:18:11;102126.27;;;3.62;100.00
60817;BME280;51921;51.518;-3.188;2023-04-19T07:20:36;102126.72;;;3.78;100.00
60817;BME280;51921;51.518;-3.188;2023-04-19T07:23:02;102132.93;;;3.71;100.00
60817;BME280;51921;51.518;-3.188;2023-04-19T07:25:27;102122.49;;;4.04;100.00
60817;BME280;51921;51.518;-3.188;2023-04-19T07:27:53;102116.87;;;3.97;100.00
60817;BME280;51921;51.518;-3.188;2023-04-19T07:30:18;102115.12;;;3.78;100.00
60817;BME280;51921;51.518;-3.188;2023-04-19T07:32:44;102111.39;;;4.03;100.00
60817;BME280;51921;51.518;-3.188;2023-04-19T07:35:09;102107.91;;;4.31;100.00
60817;BME280;51921;51.518;-3.188;2023-04-19T07:37:35;102106.09;;;3.79;100.00
60817;BME280;51921;51.518;-3.188;2023-04-19T07:40:01;102110.26;;;4.07;100.00
60817;BME280;51921;51.518;-3.188;2023-04-19T07:42:28;102115.47;;;3.89;100.00
60817;BME280;51921;51.518;-3.188;2023-04-19T07:44:52;102110.42;;;3.97;100.00
60817;BME280;51921;51.518;-3.188;2023-04-19T07:47:17;102102.40;;;3.80;100.00
60817;BME280;51921;51.518;-3.188;2023-04-19T07:49:43;102100.24;;;4.00;100.00
60817;BME280;51921;51.518;-3.188;2023-04-19T07:52:09;102088.97;;;3.80;100.00
60817;BME280;51921;51.518;-3.188;2023-04-19T07:54:33;102097.63;;;4.25;100.00
60817;BME280;51921;51.518;-3.188;2023-04-19T07:56:59;102086.40;;;4.19;100.00
60817;BME280;51921;51.518;-3.188;2023-04-19T07:59:24;102090.05;;;4.23;100.00
60817;BME280;51921;51.518;-3.188;2023-04-19T08:01:49;102084.09;;;4.11;100.00
60817;BME280;51921;51.518;-3.188;2023-04-19T08:04:15;102088.65;;;4.37;100.00
60817;BME280;51921;51.518;-3.188;2023-04-19T08:06:40;102082.59;;;4.30;100.00
60817;BME280;51921;51.518;-3.188;2023-04-19T08:09:05;102081.08;;;4.35;100.00
60817;BME280;51921;51.518;-3.188;2023-04-19T08:11:31;102067.84;;;4.25;100.00
60817;BME280;51921;51.518;-3.188;2023-04-19T08:13:57;102078.43;;;4.49;100.00
60817;BME280;51921;51.518;-3.188;2023-04-19T08:16:22;102078.82;;;4.64;100.00
60817;BME280;51921;51.518;-3.188;2023-04-19T08:18:48;102085.10;;;5.04;100.00
60817;BME280;51921;51.518;-3.188;2023-04-19T08:21:13;102085.41;;;5.32;100.00
60817;BME280;51921;51.518;-3.188;2023-04-19T08:23:38;102085.03;;;5.27;100.00
60817;BME280;51921;51.518;-3.188;2023-04-19T08:26:04;102098.24;;;5.72;100.00
60817;BME280;51921;51.518;-3.188;2023-04-19T08:28:29;102105.81;;;5.74;100.00
60817;BME280;51921;51.518;-3.188;2023-04-19T08:30:58;102111.96;;;5.84;100.00
60817;BME280;51921;51.518;-3.188;2023-04-19T08:33:20;102118.77;;;5.86;100.00
60817;BME280;51921;51.518;-3.188;2023-04-19T08:35:46;102126.58;;;6.29;100.00
60817;BME280;51921;51.518;-3.188;2023-04-19T08:38:11;102121.96;;;5.96;100.00
60817;BME280;51921;51.518;-3.188;2023-04-19T08:40:46;102118.26;;;5.72;100.00
60817;BME280;51921;51.518;-3.188;2023-04-19T08:43:04;102120.26;;;6.42;100.00
60817;BME280;51921;51.518;-3.188;2023-04-19T08:45:28;102119.74;;;5.94;100.00
60817;BME280;51921;51.518;-3.188;2023-04-19T08:47:53;102117.47;;;5.71;100.00
60817;BME280;51921;51.518;-3.188;2023-04-19T08:50:19;102116.84;;;5.83;100.00
60817;BME280;51921;51.518;-3.188;2023-04-19T08:52:44;102115.69;;;5.42;100.00
60817;BME280;51921;51.518;-3.188;2023-04-19T08:55:09;102112.70;;;5.88;100.00
60817;BME280;51921;51.518;-3.188;2023-04-19T08:57:35;102123.62;;;5.74;100.00
60817;BME280;51921;51.518;-3.188;2023-04-19T09:00:00;102125.83;;;5.72;100.00
60817;BME280;51921;51.518;-3.188;2023-04-19T09:02:24;102120.77;;;5.64;100.00
60817;BME280;51921;51.518;-3.188;2023-04-19T09:04:50;102112.98;;;5.56;100.00
60817;BME280;51921;51.518;-3.188;2023-04-19T09:07:21;102107.46;;;5.82;100.00
60817;BME280;51921;51.518;-3.188;2023-04-19T09:09:40;102104.94;;;5.98;100.00
60817;BME280;51921;51.518;-3.188;2023-04-19T09:12:14;102100.77;;;5.64;100.00
60817;BME280;51921;51.518;-3.188;2023-04-19T09:14:31;102102.54;;;5.63;100.00
60817;BME280;51921;51.518;-3.188;2023-04-19T09:19:22;102107.36;;;6.00;100.00
60817;BME280;51921;51.518;-3.188;2023-04-19T09:21:48;102100.50;;;5.88;100.00
60817;BME280;51921;51.518;-3.188;2023-04-19T09:24:13;102092.45;;;6.24;100.00
60817;BME280;51921;51.518;-3.188;2023-04-19T09:26:39;102087.18;;;6.22;100.00
60817;BME280;51921;51.518;-3.188;2023-04-19T09:29:05;102098.01;;;6.49;100.00
60817;BME280;51921;51.518;-3.188;2023-04-19T09:31:30;102094.55;;;5.82;100.00
60817;BME280;51921;51.518;-3.188;2023-04-19T09:33:55;102089.57;;;5.73;100.00
60817;BME280;51921;51.518;-3.188;2023-04-19T09:36:27;102087.16;;;5.60;100.00
60817;BME280;51921;51.518;-3.188;2023-04-19T09:38:47;102092.39;;;5.72;100.00
60817;BME280;51921;51.518;-3.188;2023-04-19T09:41:10;102090.52;;;5.79;100.00
60817;BME280;51921;51.518;-3.188;2023-04-19T09:43:36;102082.54;;;6.46;100.00
60817;BME280;51921;51.518;-3.188;2023-04-19T09:46:02;102078.16;;;6.90;100.00
60817;BME280;51921;51.518;-3.188;2023-04-19T09:48:27;102077.76;;;6.49;100.00
60817;BME280;51921;51.518;-3.188;2023-04-19T09:50:54;102073.90;;;7.05;100.00
60817;BME280;51921;51.518;-3.188;2023-04-19T09:53:18;102082.42;;;7.16;100.00
60817;BME280;51921;51.518;-3.188;2023-04-19T09:55:45;102084.34;;;6.69;100.00
60817;BME280;51921;51.518;-3.188;2023-04-19T09:58:09;102075.82;;;6.57;100.00
60817;BME280;51921;51.518;-3.188;2023-04-19T10:00:34;102074.18;;;6.74;100.00
60817;BME280;51921;51.518;-3.188;2023-04-19T10:03:00;102074.19;;;6.80;100.00
60817;BME280;51921;51.518;-3.188;2023-04-19T10:05:25;102074.79;;;6.72;100.00
60817;BME280;51921;51.518;-3.188;2023-04-19T10:07:52;102059.91;;;6.85;100.00
60817;BME280;51921;51.518;-3.188;2023-04-19T10:10:17;102073.88;;;6.85;100.00
60817;BME280;51921;51.518;-3.188;2023-04-19T10:12:44;102074.72;;;6.69;100.00
60817;BME280;51921;51.518;-3.188;2023-04-19T10:15:09;102071.22;;;7.18;100.00
60817;BME280;51921;51.518;-3.188;2023-04-19T10:17:32;102081.28;;;7.24;100.00
60817;BME280;51921;51.518;-3.188;2023-04-19T10:20:03;102078.43;;;6.97;100.00
60817;BME280;51921;51.518;-3.188;2023-04-19T10:22:23;102088.56;;;6.97;100.00
60817;BME280;51921;51.518;-3.188;2023-04-19T10:25:06;102078.04;;;7.25;100.00
60817;BME280;51921;51.518;-3.188;2023-04-19T10:27:14;102068.62;;;7.44;100.00
60817;BME280;51921;51.518;-3.188;2023-04-19T10:29:54;102071.67;;;7.53;100.00
60817;BME280;51921;51.518;-3.188;2023-04-19T10:32:05;102071.26;;;7.52;100.00
60817;BME280;51921;51.518;-3.188;2023-04-19T10:34:37;102068.25;;;7.80;100.00
60817;BME280;51921;51.518;-3.188;2023-04-19T10:36:56;102071.68;;;8.04;100.00
60817;BME280;51921;51.518;-3.188;2023-04-19T10:41:56;102075.29;;;8.24;100.00
60817;BME280;51921;51.518;-3.188;2023-04-19T10:44:12;102053.91;;;8.61;100.00
60817;BME280;51921;51.518;-3.188;2023-04-19T10:46:39;102059.10;;;8.61;100.00
60817;BME280;51921;51.518;-3.188;2023-04-19T10:49:05;102059.44;;;8.17;100.00
60817;BME280;51921;51.518;-3.188;2023-04-19T10:51:32;102065.06;;;8.61;100.00
60817;BME280;51921;51.518;-3.188;2023-04-19T10:53:56;102057.36;;;8.41;100.00
60817;BME280;51921;51.518;-3.188;2023-04-19T10:56:22;102055.60;;;8.86;100.00
60817;BME280;51921;51.518;-3.188;2023-04-19T11:03:50;102055.38;;;8.57;100.00
60817;BME280;51921;51.518;-3.188;2023-04-19T11:08:27;102048.43;;;8.60;100.00
60817;BME280;51921;51.518;-3.188;2023-04-19T11:10:55;102052.70;;;8.66;100.00
60817;BME280;51921;51.518;-3.188;2023-04-19T11:13:18;102043.32;;;8.65;100.00
60817;BME280;51921;51.518;-3.188;2023-04-19T11:15:43;102040.60;;;9.01;100.00
60817;BME280;51921;51.518;-3.188;2023-04-19T11:18:17;102041.57;;;9.32;100.00
60817;BME280;51921;51.518;-3.188;2023-04-19T11:20:34;102036.62;;;9.35;100.00
60817;BME280;51921;51.518;-3.188;2023-04-19T11:22:59;102032.85;;;9.55;100.00
60817;BME280;51921;51.518;-3.188;2023-04-19T11:25:25;102023.60;;;9.75;100.00
60817;BME280;51921;51.518;-3.188;2023-04-19T11:27:51;102013.29;;;9.71;100.00
60817;BME280;51921;51.518;-3.188;2023-04-19T11:30:17;102020.66;;;9.36;100.00
60817;BME280;51921;51.518;-3.188;2023-04-19T11:32:45;102019.81;;;9.44;100.00
60817;BME280;51921;51.518;-3.188;2023-04-19T11:35:08;102015.37;;;9.47;100.00
60817;BME280;51921;51.518;-3.188;2023-04-19T11:37:33;102017.74;;;9.98;100.00
60817;BME280;51921;51.518;-3.188;2023-04-19T11:39:57;102010.73;;;9.99;100.00
60817;BME280;51921;51.518;-3.188;2023-04-19T11:42:23;102001.47;;;9.78;100.00
60817;BME280;51921;51.518;-3.188;2023-04-19T11:44:49;101996.47;;;10.16;100.00
60817;BME280;51921;51.518;-3.188;2023-04-19T11:47:13;101990.80;;;9.60;100.00
60817;BME280;51921;51.518;-3.188;2023-04-19T11:49:38;101990.16;;;9.62;100.00
60817;BME280;51921;51.518;-3.188;2023-04-19T11:52:05;101983.76;;;10.03;100.00
60817;BME280;51921;51.518;-3.188;2023-04-19T11:54:29;101993.18;;;10.02;100.00
60817;BME280;51921;51.518;-3.188;2023-04-19T11:56:58;101999.36;;;10.31;100.00
60817;BME280;51921;51.518;-3.188;2023-04-19T11:59:19;102014.30;;;10.49;97.74
60817;BME280;51921;51.518;-3.188;2023-04-19T12:01:44;101986.17;;;9.72;100.00
60817;BME280;51921;51.518;-3.188;2023-04-19T12:04:10;101990.63;;;9.78;99.85
60817;BME280;51921;51.518;-3.188;2023-04-19T12:06:36;101990.37;;;10.42;99.89
60817;BME280;51921;51.518;-3.188;2023-04-19T12:09:06;101997.66;;;9.93;100.00
60817;BME280;51921;51.518;-3.188;2023-04-19T12:16:26;101996.95;;;10.01;95.05
60817;BME280;51921;51.518;-3.188;2023-04-19T12:18:45;101983.85;;;10.03;92.60
60817;BME280;51921;51.518;-3.188;2023-04-19T12:21:10;101980.49;;;10.07;92.71
60817;BME280;51921;51.518;-3.188;2023-04-19T12:23:35;101992.09;;;10.43;90.58
60817;BME280;51921;51.518;-3.188;2023-04-19T12:26:03;101989.93;;;10.56;90.07
60817;BME280;51921;51.518;-3.188;2023-04-19T12:28:26;101989.26;;;10.69;89.04
60817;BME280;51921;51.518;-3.188;2023-04-19T12:30:52;101986.64;;;11.16;85.72
60817;BME280;51921;51.518;-3.188;2023-04-19T12:33:17;101999.69;;;9.78;93.81
60817;BME280;51921;51.518;-3.188;2023-04-19T12:35:43;102000.78;;;10.10;92.21
60817;BME280;51921;51.518;-3.188;2023-04-19T12:38:09;101999.75;;;10.13;94.67
60817;BME280;51921;51.518;-3.188;2023-04-19T12:40:34;101994.26;;;9.54;100.00
60817;BME280;51921;51.518;-3.188;2023-04-19T12:43:00;102004.01;;;9.53;97.63
60817;BME280;51921;51.518;-3.188;2023-04-19T12:45:25;102006.70;;;9.56;96.91
60817;BME280;51921;51.518;-3.188;2023-04-19T12:47:51;101998.13;;;9.76;94.97
60817;BME280;51921;51.518;-3.188;2023-04-19T12:50:17;102003.98;;;9.78;97.99